sensor_id;sensor_type;location;lat;lon;timestamp;P1;durP1;ratioP1;P2;durP2;ratioP2
11743;SDS011;5929;51.906;7.674;2023-02-04T00:02:09;28.50;;;6.07;;
11743;SDS011;5929;51.906;7.674;2023-02-04T00:04:36;33.67;;;6.63;;
11743;SDS011;5929;51.906;7.674;2023-02-04T00:07:03;31.92;;;6.03;;
11743;SDS011;5929;51.906;7.674;2023-02-04T00:09:30;44.20;;;6.50;;
11743;SDS011;5929;51.906;7.674;2023-02-04T00:11:56;26.73;;;5.95;;
11743;SDS011;5929;51.906;7.674;2023-02-04T00:14:23;35.05;;;6.65;;
11743;SDS011;5929;51.906;7.674;2023-02-04T00:16:51;34.10;;;6.38;;
11743;SDS011;5929;51.906;7.674;2023-02-04T00:19:18;42.72;;;6.53;;
11743;SDS011;5929;51.906;7.674;2023-02-04T00:21:45;44.67;;;7.20;;
11743;SDS011;5929;51.906;7.674;2023-02-04T00:24:12;40.25;;;6.65;;
11743;SDS011;5929;51.906;7.674;2023-02-04T00:26:38;32.00;;;5.18;;
11743;SDS011;5929;51.906;7.674;2023-02-04T00:29:05;34.25;;;6.07;;
11743;SDS011;5929;51.906;7.674;2023-02-04T00:31:32;42.38;;;6.60;;
11743;SDS011;5929;51.906;7.674;2023-02-04T00:34:00;39.08;;;6.03;;
11743;SDS011;5929;51.906;7.674;2023-02-04T00:36:27;39.33;;;6.65;;
11743;SDS011;5929;51.906;7.674;2023-02-04T00:38:54;39.78;;;6.88;;
11743;SDS011;5929;51.906;7.674;2023-02-04T00:41:21;39.05;;;7.38;;
11743;SDS011;5929;51.906;7.674;2023-02-04T00:43:47;34.03;;;6.43;;
11743;SDS011;5929;51.906;7.674;2023-02-04T00:46:14;37.65;;;6.63;;
11743;SDS011;5929;51.906;7.674;2023-02-04T00:48:41;31.60;;;5.82;;
11743;SDS011;5929;51.906;7.674;2023-02-04T00:51:09;34.75;;;6.53;;
11743;SDS011;5929;51.906;7.674;2023-02-04T00:53:36;34.17;;;7.18;;
11743;SDS011;5929;51.906;7.674;2023-02-04T00:56:03;32.45;;;5.28;;
11743;SDS011;5929;51.906;7.674;2023-02-04T00:58:30;35.35;;;5.80;;
11743;SDS011;5929;51.906;7.674;2023-02-04T01:00:57;28.73;;;5.63;;
11743;SDS011;5929;51.906;7.674;2023-02-04T01:03:24;29.13;;;5.63;;
11743;SDS011;5929;51.906;7.674;2023-02-04T01:05:51;45.17;;;6.32;;
11743;SDS011;5929;51.906;7.674;2023-02-04T01:08:19;38.75;;;6.10;;
11743;SDS011;5929;51.906;7.674;2023-02-04T01:10:46;41.53;;;7.00;;
11743;SDS011;5929;51.906;7.674;2023-02-04T01:13:13;39.65;;;6.15;;
11743;SDS011;5929;51.906;7.674;2023-02-04T01:15:42;40.58;;;6.15;;
11743;SDS011;5929;51.906;7.674;2023-02-04T01:18:09;34.17;;;5.30;;
11743;SDS011;5929;51.906;7.674;2023-02-04T01:20:37;28.85;;;5.53;;
11743;SDS011;5929;51.906;7.674;2023-02-04T01:23:04;39.42;;;6.80;;
11743;SDS011;5929;51.906;7.674;2023-02-04T01:25:33;38.45;;;5.45;;
11743;SDS011;5929;51.906;7.674;2023-02-04T01:28:00;37.05;;;5.72;;
11743;SDS011;5929;51.906;7.674;2023-02-04T01:30:26;40.45;;;6.63;;
11743;SDS011;5929;51.906;7.674;2023-02-04T01:32:53;44.72;;;6.75;;
11743;SDS011;5929;51.906;7.674;2023-02-04T01:35:20;35.42;;;6.68;;
11743;SDS011;5929;51.906;7.674;2023-02-04T01:37:47;48.92;;;8.27;;
11743;SDS011;5929;51.906;7.674;2023-02-04T01:40:14;37.53;;;6.00;;
11743;SDS011;5929;51.906;7.674;2023-02-04T01:42:42;39.83;;;7.40;;
11743;SDS011;5929;51.906;7.674;2023-02-04T01:45:11;36.05;;;6.22;;
11743;SDS011;5929;51.906;7.674;2023-02-04T01:47:38;39.05;;;6.15;;
11743;SDS011;5929;51.906;7.674;2023-02-04T01:50:06;39.10;;;6.85;;
11743;SDS011;5929;51.906;7.674;2023-02-04T01:52:36;42.70;;;6.82;;
11743;SDS011;5929;51.906;7.674;2023-02-04T01:55:10;38.72;;;5.95;;
11743;SDS011;5929;51.906;7.674;2023-02-04T01:57:39;38.58;;;6.35;;
11743;SDS011;5929;51.906;7.674;2023-02-04T02:00:13;33.97;;;6.32;;
11743;SDS011;5929;51.906;7.674;2023-02-04T02:02:43;35.88;;;5.78;;
11743;SDS011;5929;51.906;7.674;2023-02-04T02:05:12;32.22;;;6.20;;
11743;SDS011;5929;51.906;7.674;2023-02-04T02:07:41;39.58;;;6.20;;
11743;SDS011;5929;51.906;7.674;2023-02-04T02:10:09;35.35;;;6.68;;
11743;SDS011;5929;51.906;7.674;2023-02-04T02:12:37;35.15;;;5.45;;
11743;SDS011;5929;51.906;7.674;2023-02-04T02:15:06;38.63;;;7.13;;
11743;SDS011;5929;51.906;7.674;2023-02-04T02:17:34;34.60;;;7.30;;
11743;SDS011;5929;51.906;7.674;2023-02-04T02:20:02;38.15;;;6.78;;
11743;SDS011;5929;51.906;7.674;2023-02-04T02:22:34;43.35;;;6.72;;
11743;SDS011;5929;51.906;7.674;2023-02-04T02:25:11;34.75;;;6.03;;
11743;SDS011;5929;51.906;7.674;2023-02-04T02:27:39;37.15;;;7.40;;
11743;SDS011;5929;51.906;7.674;2023-02-04T02:30:06;36.58;;;6.28;;
11743;SDS011;5929;51.906;7.674;2023-02-04T02:32:35;33.53;;;5.63;;
11743;SDS011;5929;51.906;7.674;2023-02-04T02:35:02;34.13;;;6.00;;
11743;SDS011;5929;51.906;7.674;2023-02-04T02:37:32;33.17;;;6.15;;
11743;SDS011;5929;51.906;7.674;2023-02-04T02:39:59;43.97;;;6.90;;
11743;SDS011;5929;51.906;7.674;2023-02-04T02:42:28;40.50;;;6.35;;
11743;SDS011;5929;51.906;7.674;2023-02-04T02:44:55;35.35;;;7.13;;
11743;SDS011;5929;51.906;7.674;2023-02-04T02:47:27;42.00;;;6.18;;
11743;SDS011;5929;51.906;7.674;2023-02-04T02:49:54;34.42;;;6.15;;
11743;SDS011;5929;51.906;7.674;2023-02-04T02:52:20;29.35;;;6.22;;
11743;SDS011;5929;51.906;7.674;2023-02-04T02:54:48;36.05;;;6.63;;
11743;SDS011;5929;51.906;7.674;2023-02-04T02:57:16;41.58;;;6.60;;
11743;SDS011;5929;51.906;7.674;2023-02-04T02:59:47;38.47;;;6.18;;
11743;SDS011;5929;51.906;7.674;2023-02-04T03:02:15;32.85;;;6.18;;
11743;SDS011;5929;51.906;7.674;2023-02-04T03:04:47;42.47;;;7.10;;
11743;SDS011;5929;51.906;7.674;2023-02-04T03:07:16;38.08;;;6.53;;
11743;SDS011;5929;51.906;7.674;2023-02-04T03:09:45;32.22;;;6.13;;
11743;SDS011;5929;51.906;7.674;2023-02-04T03:12:11;38.42;;;5.70;;
11743;SDS011;5929;51.906;7.674;2023-02-04T03:14:38;37.55;;;6.57;;
11743;SDS011;5929;51.906;7.674;2023-02-04T03:17:07;40.20;;;6.32;;
11743;SDS011;5929;51.906;7.674;2023-02-04T03:19:35;37.42;;;6.93;;
11743;SDS011;5929;51.906;7.674;2023-02-04T03:22:04;36.97;;;5.68;;
11743;SDS011;5929;51.906;7.674;2023-02-04T03:24:31;31.83;;;5.85;;
11743;SDS011;5929;51.906;7.674;2023-02-04T03:26:58;38.50;;;5.93;;
11743;SDS011;5929;51.906;7.674;2023-02-04T03:29:25;32.88;;;6.30;;
11743;SDS011;5929;51.906;7.674;2023-02-04T03:31:52;35.78;;;5.88;;
11743;SDS011;5929;51.906;7.674;2023-02-04T03:34:21;31.58;;;6.28;;
11743;SDS011;5929;51.906;7.674;2023-02-04T03:36:48;40.25;;;6.15;;
11743;SDS011;5929;51.906;7.674;2023-02-04T03:39:15;33.33;;;5.68;;
11743;SDS011;5929;51.906;7.674;2023-02-04T03:41:42;41.42;;;6.85;;
11743;SDS011;5929;51.906;7.674;2023-02-04T03:44:09;37.50;;;6.93;;
11743;SDS011;5929;51.906;7.674;2023-02-04T03:46:35;38.42;;;6.45;;
11743;SDS011;5929;51.906;7.674;2023-02-04T03:49:02;31.13;;;5.95;;
11743;SDS011;5929;51.906;7.674;2023-02-04T03:51:30;43.17;;;6.75;;
11743;SDS011;5929;51.906;7.674;2023-02-04T03:53:57;38.58;;;5.97;;
11743;SDS011;5929;51.906;7.674;2023-02-04T03:56:24;31.50;;;6.22;;
11743;SDS011;5929;51.906;7.674;2023-02-04T03:58:51;43.58;;;6.75;;
11743;SDS011;5929;51.906;7.674;2023-02-04T04:01:18;45.50;;;6.85;;
11743;SDS011;5929;51.906;7.674;2023-02-04T04:03:44;33.53;;;5.97;;
11743;SDS011;5929;51.906;7.674;2023-02-04T04:06:11;39.60;;;6.25;;
11743;SDS011;5929;51.906;7.674;2023-02-04T04:08:39;40.13;;;6.97;;
11743;SDS011;5929;51.906;7.674;2023-02-04T04:11:06;35.97;;;5.78;;
11743;SDS011;5929;51.906;7.674;2023-02-04T04:13:33;32.33;;;6.25;;
11743;SDS011;5929;51.906;7.674;2023-02-04T04:16:00;37.03;;;5.78;;
11743;SDS011;5929;51.906;7.674;2023-02-04T04:18:27;42.97;;;6.38;;
11743;SDS011;5929;51.906;7.674;2023-02-04T04:20:54;41.65;;;6.68;;
11743;SDS011;5929;51.906;7.674;2023-02-04T04:23:21;38.22;;;6.80;;
11743;SDS011;5929;51.906;7.674;2023-02-04T04:25:49;38.03;;;6.05;;
11743;SDS011;5929;51.906;7.674;2023-02-04T04:28:16;45.38;;;6.10;;
11743;SDS011;5929;51.906;7.674;2023-02-04T04:30:45;47.55;;;7.88;;
11743;SDS011;5929;51.906;7.674;2023-02-04T04:33:14;41.47;;;7.30;;
11743;SDS011;5929;51.906;7.674;2023-02-04T04:35:41;37.40;;;7.13;;
11743;SDS011;5929;51.906;7.674;2023-02-04T04:38:07;41.80;;;5.80;;
11743;SDS011;5929;51.906;7.674;2023-02-04T04:40:34;37.78;;;6.57;;
11743;SDS011;5929;51.906;7.674;2023-02-04T04:43:03;34.05;;;5.10;;
11743;SDS011;5929;51.906;7.674;2023-02-04T04:45:32;35.15;;;6.43;;
11743;SDS011;5929;51.906;7.674;2023-02-04T04:47:59;42.03;;;5.82;;
11743;SDS011;5929;51.906;7.674;2023-02-04T04:50:25;33.78;;;5.60;;
11743;SDS011;5929;51.906;7.674;2023-02-04T04:52:52;36.70;;;6.60;;
11743;SDS011;5929;51.906;7.674;2023-02-04T04:55:19;43.40;;;6.57;;
11743;SDS011;5929;51.906;7.674;2023-02-04T04:57:48;43.60;;;6.55;;
11743;SDS011;5929;51.906;7.674;2023-02-04T05:00:17;37.80;;;6.57;;
11743;SDS011;5929;51.906;7.674;2023-02-04T05:02:45;38.47;;;7.00;;
11743;SDS011;5929;51.906;7.674;2023-02-04T05:05:12;42.38;;;6.63;;
11743;SDS011;5929;51.906;7.674;2023-02-04T05:07:39;33.60;;;6.38;;
11743;SDS011;5929;51.906;7.674;2023-02-04T05:10:09;43.33;;;6.97;;
11743;SDS011;5929;51.906;7.674;2023-02-04T05:12:36;35.00;;;6.95;;
11743;SDS011;5929;51.906;7.674;2023-02-04T05:15:03;39.20;;;6.90;;
11743;SDS011;5929;51.906;7.674;2023-02-04T05:17:31;45.40;;;6.50;;
11743;SDS011;5929;51.906;7.674;2023-02-04T05:20:01;35.05;;;6.00;;
11743;SDS011;5929;51.906;7.674;2023-02-04T05:22:27;47.50;;;7.60;;
11743;SDS011;5929;51.906;7.674;2023-02-04T05:24:54;46.75;;;6.28;;
11743;SDS011;5929;51.906;7.674;2023-02-04T05:27:21;35.53;;;7.13;;
11743;SDS011;5929;51.906;7.674;2023-02-04T05:29:48;44.92;;;6.50;;
11743;SDS011;5929;51.906;7.674;2023-02-04T05:32:15;34.90;;;5.85;;
11743;SDS011;5929;51.906;7.674;2023-02-04T05:34:43;38.38;;;6.40;;
11743;SDS011;5929;51.906;7.674;2023-02-04T05:37:10;49.78;;;7.93;;
11743;SDS011;5929;51.906;7.674;2023-02-04T05:39:36;43.92;;;6.32;;
11743;SDS011;5929;51.906;7.674;2023-02-04T05:42:03;43.10;;;6.88;;
11743;SDS011;5929;51.906;7.674;2023-02-04T05:44:30;42.55;;;6.75;;
11743;SDS011;5929;51.906;7.674;2023-02-04T05:46:57;35.03;;;5.95;;
11743;SDS011;5929;51.906;7.674;2023-02-04T05:49:24;47.53;;;7.30;;
11743;SDS011;5929;51.906;7.674;2023-02-04T05:51:52;39.83;;;6.68;;
11743;SDS011;5929;51.906;7.674;2023-02-04T05:54:18;48.17;;;6.97;;
11743;SDS011;5929;51.906;7.674;2023-02-04T05:56:45;45.10;;;6.68;;
11743;SDS011;5929;51.906;7.674;2023-02-04T05:59:12;35.03;;;6.05;;
11743;SDS011;5929;51.906;7.674;2023-02-04T06:01:39;41.83;;;7.70;;
11743;SDS011;5929;51.906;7.674;2023-02-04T06:04:06;38.22;;;6.80;;
11743;SDS011;5929;51.906;7.674;2023-02-04T06:06:33;41.25;;;7.65;;
11743;SDS011;5929;51.906;7.674;2023-02-04T06:09:01;39.28;;;5.70;;
11743;SDS011;5929;51.906;7.674;2023-02-04T06:11:28;30.25;;;6.35;;
11743;SDS011;5929;51.906;7.674;2023-02-04T06:13:55;33.35;;;5.75;;
11743;SDS011;5929;51.906;7.674;2023-02-04T06:16:22;47.75;;;8.00;;
11743;SDS011;5929;51.906;7.674;2023-02-04T06:18:48;40.97;;;6.63;;
11743;SDS011;5929;51.906;7.674;2023-02-04T06:21:15;42.05;;;7.07;;
11743;SDS011;5929;51.906;7.674;2023-02-04T06:23:42;37.22;;;6.68;;
11743;SDS011;5929;51.906;7.674;2023-02-04T06:26:11;36.17;;;6.90;;
11743;SDS011;5929;51.906;7.674;2023-02-04T06:28:38;33.30;;;6.75;;
11743;SDS011;5929;51.906;7.674;2023-02-04T06:31:05;36.17;;;6.47;;
11743;SDS011;5929;51.906;7.674;2023-02-04T06:33:33;37.38;;;6.20;;
11743;SDS011;5929;51.906;7.674;2023-02-04T06:36:00;39.13;;;6.57;;
11743;SDS011;5929;51.906;7.674;2023-02-04T06:38:27;34.08;;;5.70;;
11743;SDS011;5929;51.906;7.674;2023-02-04T06:40:53;40.50;;;6.25;;
11743;SDS011;5929;51.906;7.674;2023-02-04T06:43:22;45.75;;;6.70;;
11743;SDS011;5929;51.906;7.674;2023-02-04T06:45:49;45.22;;;8.20;;
11743;SDS011;5929;51.906;7.674;2023-02-04T06:48:16;42.05;;;7.00;;
11743;SDS011;5929;51.906;7.674;2023-02-04T06:50:43;37.10;;;6.63;;
11743;SDS011;5929;51.906;7.674;2023-02-04T06:53:10;47.70;;;6.88;;
11743;SDS011;5929;51.906;7.674;2023-02-04T06:55:37;33.28;;;5.63;;
11743;SDS011;5929;51.906;7.674;2023-02-04T06:58:04;43.45;;;7.63;;
11743;SDS011;5929;51.906;7.674;2023-02-04T07:00:32;43.45;;;6.68;;
11743;SDS011;5929;51.906;7.674;2023-02-04T07:02:59;43.10;;;7.05;;
11743;SDS011;5929;51.906;7.674;2023-02-04T07:05:26;39.65;;;6.43;;
11743;SDS011;5929;51.906;7.674;2023-02-04T07:07:52;37.13;;;6.60;;
11743;SDS011;5929;51.906;7.674;2023-02-04T07:10:19;36.25;;;6.88;;
11743;SDS011;5929;51.906;7.674;2023-02-04T07:12:46;37.03;;;5.72;;
11743;SDS011;5929;51.906;7.674;2023-02-04T07:15:13;42.88;;;6.57;;
11743;SDS011;5929;51.906;7.674;2023-02-04T07:17:44;34.88;;;7.28;;
11743;SDS011;5929;51.906;7.674;2023-02-04T07:20:11;35.95;;;6.72;;
11743;SDS011;5929;51.906;7.674;2023-02-04T07:22:38;39.65;;;6.38;;
11743;SDS011;5929;51.906;7.674;2023-02-04T07:25:05;36.25;;;6.63;;
11743;SDS011;5929;51.906;7.674;2023-02-04T07:27:32;43.20;;;6.75;;
11743;SDS011;5929;51.906;7.674;2023-02-04T07:29:59;47.42;;;7.65;;
11743;SDS011;5929;51.906;7.674;2023-02-04T07:32:26;41.10;;;6.60;;
11743;SDS011;5929;51.906;7.674;2023-02-04T07:35:00;38.90;;;8.02;;
11743;SDS011;5929;51.906;7.674;2023-02-04T07:37:27;47.70;;;7.45;;
11743;SDS011;5929;51.906;7.674;2023-02-04T07:39:53;41.95;;;7.15;;
11743;SDS011;5929;51.906;7.674;2023-02-04T07:42:20;42.88;;;8.07;;
11743;SDS011;5929;51.906;7.674;2023-02-04T07:44:47;44.55;;;6.65;;
11743;SDS011;5929;51.906;7.674;2023-02-04T07:47:14;45.28;;;7.88;;
11743;SDS011;5929;51.906;7.674;2023-02-04T07:49:41;34.75;;;5.97;;
11743;SDS011;5929;51.906;7.674;2023-02-04T07:52:09;38.17;;;6.32;;
11743;SDS011;5929;51.906;7.674;2023-02-04T07:54:36;43.10;;;6.93;;
11743;SDS011;5929;51.906;7.674;2023-02-04T07:57:03;41.85;;;6.88;;
11743;SDS011;5929;51.906;7.674;2023-02-04T07:59:32;50.67;;;8.57;;
11743;SDS011;5929;51.906;7.674;2023-02-04T08:01:59;57.97;;;8.02;;
11743;SDS011;5929;51.906;7.674;2023-02-04T08:04:26;45.90;;;8.77;;
11743;SDS011;5929;51.906;7.674;2023-02-04T08:06:53;44.97;;;9.32;;
11743;SDS011;5929;51.906;7.674;2023-02-04T08:09:23;42.40;;;8.90;;
11743;SDS011;5929;51.906;7.674;2023-02-04T08:11:51;35.60;;;9.00;;
11743;SDS011;5929;51.906;7.674;2023-02-04T08:14:18;41.55;;;7.57;;
11743;SDS011;5929;51.906;7.674;2023-02-04T08:16:44;39.60;;;7.53;;
11743;SDS011;5929;51.906;7.674;2023-02-04T08:19:11;40.40;;;7.28;;
11743;SDS011;5929;51.906;7.674;2023-02-04T08:21:43;34.13;;;7.40;;
11743;SDS011;5929;51.906;7.674;2023-02-04T08:24:10;38.22;;;6.63;;
11743;SDS011;5929;51.906;7.674;2023-02-04T08:26:38;40.40;;;7.18;;
11743;SDS011;5929;51.906;7.674;2023-02-04T08:29:05;33.67;;;5.97;;
11743;SDS011;5929;51.906;7.674;2023-02-04T08:31:32;35.88;;;5.72;;
11743;SDS011;5929;51.906;7.674;2023-02-04T08:33:59;30.05;;;5.68;;
11743;SDS011;5929;51.906;7.674;2023-02-04T08:36:25;28.73;;;5.47;;
11743;SDS011;5929;51.906;7.674;2023-02-04T08:38:52;18.42;;;4.32;;
11743;SDS011;5929;51.906;7.674;2023-02-04T08:41:19;20.63;;;4.93;;
11743;SDS011;5929;51.906;7.674;2023-02-04T08:43:47;31.85;;;5.65;;
11743;SDS011;5929;51.906;7.674;2023-02-04T08:46:17;16.65;;;4.88;;
11743;SDS011;5929;51.906;7.674;2023-02-04T08:48:43;21.83;;;4.65;;
11743;SDS011;5929;51.906;7.674;2023-02-04T08:51:10;26.83;;;3.92;;
11743;SDS011;5929;51.906;7.674;2023-02-04T08:53:37;19.33;;;4.82;;
11743;SDS011;5929;51.906;7.674;2023-02-04T08:56:05;22.17;;;3.97;;
11743;SDS011;5929;51.906;7.674;2023-02-04T08:58:33;21.35;;;4.53;;
11743;SDS011;5929;51.906;7.674;2023-02-04T09:01:01;18.95;;;4.70;;
11743;SDS011;5929;51.906;7.674;2023-02-04T09:03:28;17.27;;;3.42;;
11743;SDS011;5929;51.906;7.674;2023-02-04T09:05:54;13.70;;;2.80;;
11743;SDS011;5929;51.906;7.674;2023-02-04T09:08:21;15.40;;;3.15;;
11743;SDS011;5929;51.906;7.674;2023-02-04T09:10:48;13.15;;;2.30;;
11743;SDS011;5929;51.906;7.674;2023-02-04T09:13:15;14.82;;;3.00;;
11743;SDS011;5929;51.906;7.674;2023-02-04T09:15:42;11.98;;;3.08;;
11743;SDS011;5929;51.906;7.674;2023-02-04T09:18:10;13.80;;;2.60;;
11743;SDS011;5929;51.906;7.674;2023-02-04T09:20:41;15.98;;;2.95;;
11743;SDS011;5929;51.906;7.674;2023-02-04T09:23:08;13.48;;;3.22;;
11743;SDS011;5929;51.906;7.674;2023-02-04T09:25:36;18.10;;;3.22;;
11743;SDS011;5929;51.906;7.674;2023-02-04T09:28:03;16.92;;;3.20;;
11743;SDS011;5929;51.906;7.674;2023-02-04T09:30:30;15.25;;;3.15;;
11743;SDS011;5929;51.906;7.674;2023-02-04T09:32:59;11.43;;;2.15;;
11743;SDS011;5929;51.906;7.674;2023-02-04T09:35:28;15.65;;;2.45;;
11743;SDS011;5929;51.906;7.674;2023-02-04T09:37:55;10.80;;;2.13;;
11743;SDS011;5929;51.906;7.674;2023-02-04T09:40:21;12.60;;;2.60;;
11743;SDS011;5929;51.906;7.674;2023-02-04T09:42:51;16.25;;;2.70;;
11743;SDS011;5929;51.906;7.674;2023-02-04T09:45:21;9.88;;;2.50;;
11743;SDS011;5929;51.906;7.674;2023-02-04T09:47:50;11.43;;;2.45;;
11743;SDS011;5929;51.906;7.674;2023-02-04T09:50:19;9.32;;;2.85;;
11743;SDS011;5929;51.906;7.674;2023-02-04T09:52:50;12.07;;;3.35;;
11743;SDS011;5929;51.906;7.674;2023-02-04T09:55:20;12.70;;;2.65;;
11743;SDS011;5929;51.906;7.674;2023-02-04T09:57:51;11.88;;;3.08;;
11743;SDS011;5929;51.906;7.674;2023-02-04T10:00:22;12.55;;;2.63;;
11743;SDS011;5929;51.906;7.674;2023-02-04T10:02:50;19.58;;;2.35;;
11743;SDS011;5929;51.906;7.674;2023-02-04T10:05:18;15.63;;;2.85;;
11743;SDS011;5929;51.906;7.674;2023-02-04T10:07:51;12.13;;;1.92;;
11743;SDS011;5929;51.906;7.674;2023-02-04T10:10:21;12.85;;;3.28;;
11743;SDS011;5929;51.906;7.674;2023-02-04T10:12:51;15.27;;;2.92;;
11743;SDS011;5929;51.906;7.674;2023-02-04T10:15:23;14.57;;;2.92;;
11743;SDS011;5929;51.906;7.674;2023-02-04T10:17:51;9.40;;;2.40;;
11743;SDS011;5929;51.906;7.674;2023-02-04T10:20:20;9.98;;;2.60;;
11743;SDS011;5929;51.906;7.674;2023-02-04T10:22:48;12.60;;;2.75;;
11743;SDS011;5929;51.906;7.674;2023-02-04T10:25:20;16.67;;;2.53;;
11743;SDS011;5929;51.906;7.674;2023-02-04T10:27:48;13.73;;;3.03;;
11743;SDS011;5929;51.906;7.674;2023-02-04T10:30:17;11.68;;;2.58;;
11743;SDS011;5929;51.906;7.674;2023-02-04T10:32:46;13.60;;;3.08;;
11743;SDS011;5929;51.906;7.674;2023-02-04T10:35:14;13.68;;;3.10;;
11743;SDS011;5929;51.906;7.674;2023-02-04T10:37:45;13.05;;;2.95;;
11743;SDS011;5929;51.906;7.674;2023-02-04T10:40:27;14.55;;;3.10;;
11743;SDS011;5929;51.906;7.674;2023-02-04T10:42:55;12.25;;;3.63;;
11743;SDS011;5929;51.906;7.674;2023-02-04T10:45:22;12.32;;;3.35;;
11743;SDS011;5929;51.906;7.674;2023-02-04T10:47:50;16.13;;;4.45;;
11743;SDS011;5929;51.906;7.674;2023-02-04T10:50:18;17.15;;;4.18;;
11743;SDS011;5929;51.906;7.674;2023-02-04T10:52:48;21.77;;;5.45;;
11743;SDS011;5929;51.906;7.674;2023-02-04T10:55:17;16.50;;;4.50;;
11743;SDS011;5929;51.906;7.674;2023-02-04T10:57:46;18.27;;;5.00;;
11743;SDS011;5929;51.906;7.674;2023-02-04T11:00:15;15.93;;;3.85;;
11743;SDS011;5929;51.906;7.674;2023-02-04T11:02:47;20.33;;;4.15;;
11743;SDS011;5929;51.906;7.674;2023-02-04T11:05:20;20.98;;;4.63;;
11743;SDS011;5929;51.906;7.674;2023-02-04T11:07:48;17.50;;;4.07;;
11743;SDS011;5929;51.906;7.674;2023-02-04T11:10:16;16.67;;;4.30;;
11743;SDS011;5929;51.906;7.674;2023-02-04T11:12:46;15.02;;;3.95;;
11743;SDS011;5929;51.906;7.674;2023-02-04T11:15:36;18.48;;;3.45;;
11743;SDS011;5929;51.906;7.674;2023-02-04T11:18:11;15.93;;;4.80;;
11743;SDS011;5929;51.906;7.674;2023-02-04T11:20:50;21.42;;;4.57;;
11743;SDS011;5929;51.906;7.674;2023-02-04T11:23:29;18.13;;;4.97;;
11743;SDS011;5929;51.906;7.674;2023-02-04T11:26:06;14.13;;;4.07;;
11743;SDS011;5929;51.906;7.674;2023-02-04T11:28:47;19.55;;;4.60;;
11743;SDS011;5929;51.906;7.674;2023-02-04T11:31:26;15.50;;;4.45;;
11743;SDS011;5929;51.906;7.674;2023-02-04T11:34:25;23.23;;;7.88;;
11743;SDS011;5929;51.906;7.674;2023-02-04T11:36:54;29.25;;;9.70;;
11743;SDS011;5929;51.906;7.674;2023-02-04T11:39:27;18.65;;;5.57;;
11743;SDS011;5929;51.906;7.674;2023-02-04T11:41:57;18.50;;;4.57;;
11743;SDS011;5929;51.906;7.674;2023-02-04T11:44:26;15.80;;;4.93;;
11743;SDS011;5929;51.906;7.674;2023-02-04T11:46:53;18.45;;;4.80;;
11743;SDS011;5929;51.906;7.674;2023-02-04T11:49:23;19.88;;;5.80;;
11743;SDS011;5929;51.906;7.674;2023-02-04T11:52:01;16.88;;;5.00;;
11743;SDS011;5929;51.906;7.674;2023-02-04T11:54:32;15.27;;;4.70;;
11743;SDS011;5929;51.906;7.674;2023-02-04T11:57:00;15.10;;;5.05;;
11743;SDS011;5929;51.906;7.674;2023-02-04T11:59:28;21.08;;;5.00;;
11743;SDS011;5929;51.906;7.674;2023-02-04T12:02:05;25.85;;;5.65;;
11743;SDS011;5929;51.906;7.674;2023-02-04T12:04:39;22.15;;;4.85;;
11743;SDS011;5929;51.906;7.674;2023-02-04T12:07:20;19.15;;;5.57;;
11743;SDS011;5929;51.906;7.674;2023-02-04T12:09:49;20.13;;;7.35;;
11743;SDS011;5929;51.906;7.674;2023-02-04T12:12:21;21.02;;;4.55;;
11743;SDS011;5929;51.906;7.674;2023-02-04T12:14:56;16.65;;;5.20;;
11743;SDS011;5929;51.906;7.674;2023-02-04T12:17:28;22.77;;;5.47;;
11743;SDS011;5929;51.906;7.674;2023-02-04T12:19:55;19.35;;;4.63;;
11743;SDS011;5929;51.906;7.674;2023-02-04T12:22:22;25.67;;;5.00;;
11743;SDS011;5929;51.906;7.674;2023-02-04T12:24:49;20.13;;;5.10;;
11743;SDS011;5929;51.906;7.674;2023-02-04T12:27:16;23.02;;;4.68;;
11743;SDS011;5929;51.906;7.674;2023-02-04T12:29:44;22.48;;;5.63;;
11743;SDS011;5929;51.906;7.674;2023-02-04T12:32:13;16.45;;;4.65;;
11743;SDS011;5929;51.906;7.674;2023-02-04T12:34:39;18.15;;;4.65;;
11743;SDS011;5929;51.906;7.674;2023-02-04T12:37:06;14.55;;;4.40;;
11743;SDS011;5929;51.906;7.674;2023-02-04T12:39:33;17.80;;;6.13;;
11743;SDS011;5929;51.906;7.674;2023-02-04T12:42:00;24.15;;;5.13;;
11743;SDS011;5929;51.906;7.674;2023-02-04T12:44:28;24.92;;;5.32;;
11743;SDS011;5929;51.906;7.674;2023-02-04T12:46:55;17.48;;;4.18;;
11743;SDS011;5929;51.906;7.674;2023-02-04T12:49:23;14.63;;;4.07;;
11743;SDS011;5929;51.906;7.674;2023-02-04T12:51:50;14.20;;;4.82;;
11743;SDS011;5929;51.906;7.674;2023-02-04T12:54:17;22.70;;;4.70;;
11743;SDS011;5929;51.906;7.674;2023-02-04T12:56:43;17.00;;;4.68;;
11743;SDS011;5929;51.906;7.674;2023-02-04T12:59:10;14.18;;;4.45;;
11743;SDS011;5929;51.906;7.674;2023-02-04T13:01:37;16.40;;;4.07;;
11743;SDS011;5929;51.906;7.674;2023-02-04T13:04:04;17.15;;;4.57;;
11743;SDS011;5929;51.906;7.674;2023-02-04T13:06:32;11.55;;;4.05;;
11743;SDS011;5929;51.906;7.674;2023-02-04T13:08:59;16.17;;;4.32;;
11743;SDS011;5929;51.906;7.674;2023-02-04T13:11:25;18.63;;;4.38;;
11743;SDS011;5929;51.906;7.674;2023-02-04T13:13:52;12.82;;;4.10;;
11743;SDS011;5929;51.906;7.674;2023-02-04T13:16:19;15.35;;;3.60;;
11743;SDS011;5929;51.906;7.674;2023-02-04T13:18:48;16.63;;;3.75;;
11743;SDS011;5929;51.906;7.674;2023-02-04T13:21:16;14.95;;;5.65;;
11743;SDS011;5929;51.906;7.674;2023-02-04T13:23:44;27.45;;;5.25;;
11743;SDS011;5929;51.906;7.674;2023-02-04T13:26:11;17.40;;;4.88;;
11743;SDS011;5929;51.906;7.674;2023-02-04T13:28:37;22.27;;;3.97;;
11743;SDS011;5929;51.906;7.674;2023-02-04T13:31:04;19.80;;;7.00;;
11743;SDS011;5929;51.906;7.674;2023-02-04T13:33:31;15.15;;;4.28;;
11743;SDS011;5929;51.906;7.674;2023-02-04T13:35:58;15.15;;;4.22;;
11743;SDS011;5929;51.906;7.674;2023-02-04T13:38:25;14.30;;;3.70;;
11743;SDS011;5929;51.906;7.674;2023-02-04T13:40:53;12.52;;;3.47;;
11743;SDS011;5929;51.906;7.674;2023-02-04T13:43:20;21.02;;;6.85;;
11743;SDS011;5929;51.906;7.674;2023-02-04T13:45:47;13.73;;;4.32;;
11743;SDS011;5929;51.906;7.674;2023-02-04T13:48:14;23.05;;;7.07;;
11743;SDS011;5929;51.906;7.674;2023-02-04T13:50:41;17.42;;;4.68;;
11743;SDS011;5929;51.906;7.674;2023-02-04T13:53:08;15.45;;;4.43;;
11743;SDS011;5929;51.906;7.674;2023-02-04T13:55:35;27.65;;;7.15;;
11743;SDS011;5929;51.906;7.674;2023-02-04T13:58:03;15.20;;;5.30;;
11743;SDS011;5929;51.906;7.674;2023-02-04T14:00:30;15.05;;;4.10;;
11743;SDS011;5929;51.906;7.674;2023-02-04T14:02:57;13.50;;;3.83;;
11743;SDS011;5929;51.906;7.674;2023-02-04T14:05:23;12.82;;;3.88;;
11743;SDS011;5929;51.906;7.674;2023-02-04T14:07:53;16.35;;;4.03;;
11743;SDS011;5929;51.906;7.674;2023-02-04T14:10:19;18.05;;;4.45;;
11743;SDS011;5929;51.906;7.674;2023-02-04T14:12:49;14.68;;;3.63;;
11743;SDS011;5929;51.906;7.674;2023-02-04T14:15:17;45.65;;;20.70;;
11743;SDS011;5929;51.906;7.674;2023-02-04T14:17:44;20.10;;;5.53;;
11743;SDS011;5929;51.906;7.674;2023-02-04T14:20:11;20.08;;;4.78;;
11743;SDS011;5929;51.906;7.674;2023-02-04T14:22:38;14.90;;;4.10;;
11743;SDS011;5929;51.906;7.674;2023-02-04T14:25:05;13.48;;;5.10;;
11743;SDS011;5929;51.906;7.674;2023-02-04T14:27:33;16.45;;;4.45;;
11743;SDS011;5929;51.906;7.674;2023-02-04T14:30:02;13.15;;;3.28;;
11743;SDS011;5929;51.906;7.674;2023-02-04T14:32:33;14.02;;;3.88;;
11743;SDS011;5929;51.906;7.674;2023-02-04T14:35:00;10.38;;;3.88;;
11743;SDS011;5929;51.906;7.674;2023-02-04T14:37:27;12.65;;;3.50;;
11743;SDS011;5929;51.906;7.674;2023-02-04T14:39:53;15.27;;;3.20;;
11743;SDS011;5929;51.906;7.674;2023-02-04T14:42:20;13.45;;;3.70;;
11743;SDS011;5929;51.906;7.674;2023-02-04T14:44:47;11.77;;;3.28;;
11743;SDS011;5929;51.906;7.674;2023-02-04T14:47:14;14.48;;;3.92;;
11743;SDS011;5929;51.906;7.674;2023-02-04T14:49:42;14.18;;;3.17;;
11743;SDS011;5929;51.906;7.674;2023-02-04T14:52:09;9.45;;;3.22;;
11743;SDS011;5929;51.906;7.674;2023-02-04T14:54:37;10.82;;;2.80;;